| Record Date MM/DD/YYYY | Record Julian Date NNN day of the year | Air Temperature Max (Degrees Fahrenheit F) | Time Max Air Temperature HH:MM:SS This is the time of max air temperature standard time. | Air Temperature Min (Degrees Fahrenheit F) | Time Min Air Temperature HH:MM:SS This is the time of min air temperature standard time. | Air Temperature Observed (Degrees Fahrenheit F) This is an instantaneous reading for air temperature at 7:00:00 standard time. | Relative Humidity Max (Percent) | Time Max Relative Humidity HH:MM:SS This is the time of max relative humidity standard time. | Relative Humidity Min (Percent) | Time Min Relative Humidity HH:MM:SS This is the time of min relative humidity standard time. | Relative Humidity Observed (Percent) This is an instantaneous reading at 7:00:00 standard time. | Precipitation (Inches n.nn) total rain fall that occurred for the day. | Pan Evaporation (Inches n.nn) total evaporation that occured for the day. | Wind Run (Miles) Wind travel for the day. | Wind Speed (Miles Per Hour) Resultant / Average speed for the day. | Wind Direction (Degrees) Resultant Direction for the day | Solar Radiation (Langley's) that occurred for the day. | Soil Temperature Max at 2 inch depth (Degrees Fahrenheit F) that occurred during the day. | Time Max Soil temperature at 2 inches HH:MM:SS This is the time of max 2 inch soil temperature standard time. | Soil Temperature Min at 2 inch depth (Degrees Fahrenheit F) that occurred during the day. | Time Min Soil temperature at 2 inches HH:MM:SS This is the time of min 2 inch soil temperature standard time. | Soil Temperature Observed at 2 inch depth (Degrees Fahrenheit F) This is an instantaneous reading 2 inch soil temperature at 7:00:00 standard time. | Soil Temperature Max at 4 inch depth (Degrees Fahrenheit F) that occurred during the day. | Time Max Soil temperature at 4 inches HH:MM:SS This is the time of max 4 inch soil temperature standard time. | Soil Temperature Min at 4 inch depth (Degrees Fahrenheit F) that occurred during the day. | Time Min Soil temperature at 4 inches HH:MM:SS This is the time of min 4 inch soil temperature standard time. | Soil Temperature Observed at 4 inch depth (Degrees Fahrenheit F) This is an instantaneous reading 4 inch soil temperature at 7:00:00 standard time. | DD50 Degree Days 50 Fahrenheit. | Adjusted DD50 Degree Days 50 Fahrenheit adjusted for latitude. | DD60 Degree Days 60 Fahrenheit. |
|---|---|---|---|---|---|---|---|---|---|---|---|---|---|---|---|---|---|---|---|---|---|---|---|---|---|---|---|---|---|---|
| 04/06/2026 | 96 | 72 | 15:18:05 | 45 | 5:53:00 | 49 | 85 | 5:59:02 | 28 | 16:31:00 | 75 | 0 | 69 | 2.9 | 10 | 566 | 74 | 15:45:04 | 56 | 7:08:04 | 56 | 75 | 16:38:03 | 58 | 7:32:05 | 58 | 8.5 | 9.62 | 0 | |
| 04/07/2026 | 97 | 76 | 15:14:03 | 43 | 4:54:05 | 54 | 94 | 5:04:05 | 31 | 15:07:00 | 75 | 0 | 89 | 3.7 | 18 | 582 | 76 | 15:39:05 | 57 | 7:02:01 | 57 | 76 | 16:25:02 | 59 | 7:40:04 | 59 | 9.5 | 10.66 | 0 | |
| 04/08/2026 | 98 | 81 | 14:24:05 | 51 | 4:42:05 | 56 | 79 | 4:51:05 | 28 | 15:08:05 | 68 | 0 | 92 | 3.8 | 155 | 551 | 76 | 15:46:05 | 60 | 7:27:03 | 60 | 77 | 16:02:03 | 61 | 7:43:02 | 61 | 16 | 17.19 | 6 | |
| 04/09/2026 | 99 | 81 | 15:10:01 | 52 | 5:13:00 | 60 | 77 | 5:39:01 | 34 | 15:58:01 | 68 | 0 | 86 | 3.6 | 168 | 567 | 77 | 15:35:04 | 60 | 7:06:04 | 60 | 78 | 16:30:02 | 61 | 7:36:03 | 61 | 16.5 | 17.72 | 6.5 | |
| 04/10/2026 | 100 | 84 | 13:46:00 | 53 | 5:17:03 | 62 | 86 | 5:20:05 | 37 | 15:53:02 | 71 | 0 | 54 | 2.3 | 214 | 494 | 77 | 15:11:03 | 62 | 7:02:04 | 62 | 77 | 16:56:05 | 63 | 7:26:05 | 63 | 18.5 | 19.76 | 8.5 | |
| 04/11/2026 | 101 | 87 | 13:40:02 | 54 | 3:20:04 | 63 | 91 | 2:39:04 | 34 | 13:41:03 | 81 | 0 | 62 | 2.6 | 188 | 490 | 78 | 15:11:01 | 63 | 6:58:02 | 63 | 78 | 15:32:00 | 64 | 7:18:00 | 64 | 20.5 | 21.79 | 10.5 | |
| 04/12/2026 | 102 | 87 | 14:43:01 | 55 | 5:56:04 | 66 | 88 | 6:02:04 | 33 | 14:11:02 | 75 | 0 | 189 | 7.9 | 191 | 446 | 77 | 15:38:01 | 64 | 6:56:02 | 64 | 77 | 15:50:03 | 65 | 7:39:02 | 66 | 21 | 22.32 | 11 | |
| 04/13/2026 | 103 | 85 | 15:30:00 | 67 | 20:56:03 | 68 | 86 | 6:48:02 | 53 | 15:27:02 | 85 | 0 | 180 | 7.5 | 193 | 300 | 77 | 16:05:05 | 69 | 7:53:02 | 69 | 77 | 16:22:02 | 69 | 8:39:01 | 69 | 26 | 27.35 | 16 | |
| 04/14/2026 | 104 | 87 | 13:47:03 | 66 | 5:28:05 | 70 | 85 | 5:42:01 | 44 | 14:19:05 | 81 | 0 | 147 | 6.1 | 207 | 559 | 83 | 16:12:00 | 68 | 6:51:02 | 68 | 83 | 16:49:02 | 68 | 7:24:00 | 68 | 26.5 | 27.38 | 16.5 | |
| 04/15/2026 | 105 | 87 | 14:24:01 | 64 | 23:03:00 | 71 | 83 | 5:47:05 | 39 | 15:05:05 | 77 | 0 | 139 | 5.8 | 210 | 490 | 82 | 16:24:00 | 69 | 7:04:03 | 69 | 81 | 16:50:00 | 70 | 7:35:03 | 70 | 25.5 | 26.91 | 15.5 | |
| 04/16/2026 | 106 | 88 | 14:07:03 | 66 | 4:49:04 | 66 | 87 | 6:59:03 | 42 | 15:11:01 | 86 | 0 | 106 | 4.4 | 213 | 487 | 85 | 16:14:00 | 70 | 7:45:01 | 70 | 84 | 16:56:00 | 71 | 8:06:05 | 71 | 27 | 27.45 | 17 | |
| 04/17/2026 | 107 | 91 | 12:55:03 | 64 | 3:44:03 | 73 | 87 | 5:38:04 | 39 | 13:36:03 | 76 | 0 | 175 | 7.3 | 190 | 557 | 86 | 15:22:05 | 71 | 6:45:00 | 71 | 84 | 16:12:02 | 71 | 7:34:04 | 71 | 27.5 | 27.48 | 17.5 | |
| 04/18/2026 | 108 | 75 | 0:14:05 | 48 | 23:59:05 | 69 | 92 | 11:54:01 | 67 | 0:15:00 | 84 | 0.14 | 104 | 4.3 | 341 | 92 | 76 | 0:00:00 | 63 | 23:59:00 | 73 | 76 | 0:00:00 | 65 | 23:59:05 | 73 | 11.5 | 13.01 | 1.5 | |
| 04/19/2026 | 109 | 72 | 15:04:01 | 42 | 5:56:01 | 50 | 94 | 3:51:04 | 24 | 16:48:03 | 84 | 0 | 42 | 1.8 | 309 | 629 | 81 | 15:55:04 | 57 | 7:16:05 | 57 | 79 | 17:07:01 | 60 | 7:26:01 | 60 | 7 | 8.54 | 0 | |
| 04/20/2026 | 110 | 79 | 14:47:03 | 41 | 5:02:02 | 52 | 96 | 6:17:05 | 25 | 15:11:02 | 90 | 0 | 48 | 2.0 | 235 | 623 | 84 | 16:04:02 | 59 | 6:59:05 | 59 | 81 | 16:44:02 | 61 | 7:45:00 | 61 | 10 | 11.57 | 0 | |
| 04/21/2026 | 111 | 83 | 12:35:01 | 44 | 4:08:05 | 55 | 94 | 4:29:04 | 24 | 17:05:01 | 88 | 0 | 90 | 3.8 | 225 | 575 | 81 | 15:33:03 | 61 | 6:58:02 | 61 | 79 | 16:33:02 | 63 | 7:38:03 | 63 | 13.5 | 15.09 | 3.5 | |
| 04/22/2026 | 112 | 85 | 14:24:04 | 48 | 3:11:03 | 59 | 90 | 3:16:01 | 27 | 14:26:02 | 73 | 0 | 88 | 3.7 | 208 | 562 | 83 | 16:19:03 | 63 | 7:07:02 | 63 | 81 | 16:56:04 | 64 | 7:41:03 | 65 | 16.5 | 18.12 | 6.5 | |
| 04/23/2026 | 113 | 86 | 14:11:03 | 58 | 4:13:04 | 69 | 85 | 5:30:00 | 37 | 16:02:05 | 77 | 0 | 152 | 6.3 | 169 | 466 | 82 | 15:07:03 | 67 | 6:02:04 | 67 | 80 | 15:49:03 | 68 | 6:39:00 | 68 | 22 | 23.65 | 12 | |
| 04/24/2026 | 114 | 74 | 8:20:05 | 61 | 21:59:00 | 69 | 96 | 23:56:03 | 58 | 0:13:03 | 79 | 0.79 | 115 | 4.8 | 165 | 103 | 72 | 0:00:04 | 65 | 23:58:00 | 70 | 73 | 0:00:04 | 67 | 23:59:02 | 70 | 17.5 | 19.18 | 7.5 | |
| 04/25/2026 | 115 | 79 | 15:14:00 | 59 | 4:08:05 | 61 | 98 | 8:05:03 | 54 | 15:09:05 | 98 | 0.01 | 38 | 1.6 | 335 | 505 | 85 | 16:02:05 | 64 | 6:00:00 | 64 | 81 | 16:52:02 | 65 | 6:34:04 | 65 | 19 | 20.71 | 9 | |
| 04/26/2026 | 116 | 86 | 14:24:01 | 63 | 5:29:01 | 69 | 95 | 5:53:03 | 44 | 13:29:03 | 85 | 0.01 | 74 | 3.1 | 155 | 520 | 85 | 15:55:02 | 68 | 6:56:02 | 69 | 83 | 16:41:00 | 69 | 7:17:04 | 69 | 24.5 | 26.23 | 14.5 | |
| 04/27/2026 | 117 | 82 | 16:02:00 | 70 | 0:00:00 | 73 | 88 | 6:07:03 | 73 | 15:40:03 | 88 | 0.01 | 221 | 9.2 | 180 | 262 | 78 | 12:30:03 | 71 | 5:27:05 | 71 | 77 | 13:32:01 | 72 | 6:38:04 | 72 | 26 | 27.76 | 16 | |
| 04/28/2026 | 118 | 80 | 9:58:05 | 70 | 22:27:00 | 73 | 96 | 23:57:01 | 78 | 10:01:03 | 85 | 1.86 | 147 | 6.1 | 173 | 178 | 77 | 13:25:04 | 72 | 23:58:03 | 72 | 77 | 13:59:05 | 72 | 23:58:01 | 73 | 25 | 26.79 | 15 | |
| 04/29/2026 | 119 | 70 | 1:05:02 | 61 | 23:07:01 | 67 | 96 | 0:51:04 | 77 | 16:52:04 | 91 | 0 | 76 | 3.2 | 359 | 215 | 74 | 15:18:05 | 68 | 23:59:05 | 70 | 73 | 15:34:05 | 69 | 23:58:04 | 71 | 15.5 | 17.31 | 5.5 | |
| 04/30/2026 | 120 | 68 | 13:08:01 | 54 | 22:13:03 | 58 | 84 | 2:53:04 | 45 | 13:29:04 | 70 | 0 | 102 | 4.3 | 19 | 473 | 73 | 14:06:01 | 63 | 7:22:00 | 63 | 72 | 14:25:04 | 65 | 8:08:01 | 65 | 11 | 12.84 | 1 | |
| 05/01/2026 | 121 | 67 | 15:03:02 | 53 | 2:08:00 | 58 | 89 | 5:46:04 | 42 | 16:15:02 | 76 | 0 | 55 | 2.3 | 346 | 341 | 70 | 15:49:00 | 62 | 6:02:05 | 62 | 70 | 17:06:03 | 63 | 7:00:01 | 63 | 10 | 11.86 | 0 | |
| 05/02/2026 | 122 | 73 | 15:05:01 | 47 | 5:20:00 | 57 | 91 | 6:00:04 | 32 | 13:18:04 | 70 | 0 | 64 | 2.6 | 299 | 609 | 76 | 15:49:03 | 59 | 6:39:02 | 59 | 75 | 16:17:02 | 60 | 7:04:03 | 60 | 10 | 11.89 | 0 | |
| 05/03/2026 | 123 | 77 | 15:25:00 | 45 | 5:05:01 | 55 | 91 | 5:21:02 | 31 | 15:11:03 | 75 | 0 | 88 | 3.7 | 220 | 664 | 78 | 15:52:03 | 59 | 6:42:02 | 59 | 79 | 16:39:00 | 60 | 7:29:00 | 60 | 11 | 12.91 | 1 | |
| 05/04/2026 | 124 | 81 | 13:58:02 | 55 | 4:13:00 | 63 | 89 | 5:59:02 | 35 | 12:57:01 | 76 | 0 | 157 | 6.5 | 206 | 640 | 81 | 15:25:04 | 63 | 6:22:01 | 63 | 79 | 16:12:04 | 65 | 7:16:04 | 65 | 18 | 19.93 | 8 | |
| 05/05/2026 | 125 | 74 | 23:34:04 | 63 | 5:13:03 | 64 | 87 | 12:16:02 | 66 | 0:05:02 | 77 | 0.02 | 191 | 8.0 | 182 | 99 | 69 | 0:00:02 | 66 | 6:22:02 | 66 | 70 | 0:01:01 | 67 | 7:12:02 | 67 | 18.5 | 20.45 | 8.5 | |
| Average | 79.9 | 55.4 | 62.63 | 89.3 | 42.7 | 79.47 | 0.09 | 108 | 454.83 | 78.43 | 63.97 | 64.57 | 77.73 | 65.17 | 65.7 | 17.65 | 19.12 | 7.82 | ||||||||||||
| Total | 2.84 | 529.5 | 573.47 | 234.5 |